createdAt,value
2022-10-05T00:01:33.812Z,12.70
2022-10-05T00:05:33.963Z,12.67
2022-10-05T00:09:32.800Z,12.64
2022-10-05T00:13:32.610Z,12.63
2022-10-05T00:17:10.637Z,12.64
2022-10-05T00:21:25.397Z,12.64
2022-10-05T00:25:24.650Z,12.64
2022-10-05T00:29:24.287Z,12.66
2022-10-05T00:33:22.113Z,12.67
2022-10-05T00:37:34.097Z,12.69
2022-10-05T00:42:00.101Z,12.70
2022-10-05T00:46:34.321Z,12.71
2022-10-05T00:50:50.801Z,12.72
2022-10-05T00:55:13.963Z,12.73
2022-10-05T00:59:44.196Z,12.74
2022-10-05T01:04:13.561Z,12.74
2022-10-05T01:08:48.956Z,12.73
2022-10-05T01:13:45.797Z,12.73
2022-10-05T01:18:03.174Z,12.74
2022-10-05T01:22:14.285Z,12.74
2022-10-05T01:27:04.122Z,12.74
2022-10-05T01:31:33.442Z,12.81
2022-10-05T01:35:55.284Z,12.83
2022-10-05T01:40:06.837Z,12.85
2022-10-05T01:44:15.636Z,12.87
2022-10-05T01:48:29.543Z,12.90
2022-10-05T01:52:48.458Z,12.94
2022-10-05T01:57:11.120Z,12.94
2022-10-05T02:01:32.595Z,12.93
2022-10-05T02:05:41.359Z,12.93
2022-10-05T02:10:02.795Z,12.92
2022-10-05T02:14:11.497Z,12.91
2022-10-05T02:18:16.317Z,12.89
2022-10-05T02:22:39.634Z,12.84
2022-10-05T02:26:40.795Z,12.78
2022-10-05T02:30:54.379Z,12.75
2022-10-05T02:34:52.956Z,12.76
2022-10-05T02:38:53.634Z,12.77
2022-10-05T02:43:10.380Z,12.77
2022-10-05T02:47:34.114Z,12.78
2022-10-05T02:51:40.799Z,12.78
2022-10-05T02:55:57.794Z,12.78
2022-10-05T03:00:33.674Z,12.76
2022-10-05T03:05:17.614Z,12.76
2022-10-05T03:09:21.281Z,12.77
2022-10-05T03:13:52.435Z,12.78
2022-10-05T03:18:30.801Z,12.77
2022-10-05T03:23:04.137Z,12.78
2022-10-05T03:27:15.474Z,12.78
2022-10-05T03:31:36.723Z,12.77
2022-10-05T03:35:35.318Z,12.76
2022-10-05T03:39:48.214Z,12.76
2022-10-05T03:44:25.786Z,12.79
2022-10-05T03:48:35.761Z,12.83
2022-10-05T03:52:56.274Z,12.87
2022-10-05T03:57:07.575Z,12.89
2022-10-05T04:01:13.375Z,12.90
2022-10-05T04:05:12.594Z,12.90
2022-10-05T04:09:15.797Z,12.90
2022-10-05T04:13:40.678Z,12.90
2022-10-05T04:17:43.393Z,12.86
2022-10-05T04:21:48.576Z,12.82
2022-10-05T04:25:52.928Z,12.80
2022-10-05T04:30:00.947Z,12.79
2022-10-05T04:34:26.878Z,12.79
2022-10-05T04:39:11.787Z,12.80
2022-10-05T04:43:30.103Z,12.79
2022-10-05T04:47:58.712Z,12.79
2022-10-05T04:52:06.534Z,12.76
2022-10-05T04:56:18.401Z,12.75
2022-10-05T05:00:57.875Z,12.74
2022-10-05T05:05:21.909Z,12.73
2022-10-05T05:09:40.017Z,12.74
2022-10-05T05:13:17.657Z,12.75
2022-10-05T05:17:32.108Z,12.75
2022-10-05T05:21:42.347Z,12.76
2022-10-05T05:25:56.543Z,12.77
2022-10-05T05:30:19.075Z,12.77
2022-10-05T05:34:37.978Z,12.77
2022-10-05T05:38:50.429Z,12.77
2022-10-05T05:43:30.044Z,12.78
2022-10-05T05:47:41.020Z,12.80
2022-10-05T05:52:16.612Z,12.80
2022-10-05T05:55:38.928Z,12.81
2022-10-05T05:59:33.130Z,12.83
2022-10-05T06:03:43.268Z,12.86
2022-10-05T06:08:02.076Z,12.90
2022-10-05T06:12:42.628Z,12.92
2022-10-05T06:16:49.815Z,12.94
2022-10-05T06:20:57.174Z,12.96
2022-10-05T06:25:12.199Z,12.98
2022-10-05T06:29:19.555Z,13.00
2022-10-05T06:33:46.508Z,13.01
2022-10-05T06:38:15.415Z,13.03
2022-10-05T06:43:00.704Z,13.06
2022-10-05T06:47:23.068Z,13.07
2022-10-05T06:52:22.087Z,13.08
2022-10-05T06:56:31.584Z,13.08
2022-10-05T07:00:44.196Z,13.08
2022-10-05T07:04:52.766Z,13.11
2022-10-05T07:09:25.935Z,13.13
2022-10-05T07:13:47.603Z,13.14
2022-10-05T07:18:18.479Z,13.15
2022-10-05T07:22:54.533Z,13.13
2022-10-05T07:27:20.682Z,13.13
2022-10-05T07:31:49.960Z,13.14
2022-10-05T07:36:27.402Z,13.17
2022-10-05T07:40:38.200Z,13.21
2022-10-05T07:44:48.726Z,13.26
2022-10-05T07:49:16.448Z,13.32
2022-10-05T07:54:10.990Z,13.42
2022-10-05T07:58:48.800Z,13.53
2022-10-05T08:02:58.651Z,13.58
2022-10-05T08:06:32.399Z,13.61
2022-10-05T08:10:47.339Z,13.68
2022-10-05T08:15:00.608Z,13.78
2022-10-05T08:19:21.572Z,13.88
2022-10-05T08:23:19.974Z,13.95
2022-10-05T08:31:52.629Z,14.05
2022-10-05T08:36:13.260Z,14.11
2022-10-05T08:39:49.524Z,14.14
2022-10-05T08:44:00.352Z,14.19
2022-10-05T08:48:38.678Z,14.24
2022-10-05T08:53:20.382Z,14.28
2022-10-05T08:56:28.811Z,14.35
2022-10-05T09:00:53.360Z,14.42
2022-10-05T09:05:12.209Z,14.49
2022-10-05T09:09:06.712Z,14.58
2022-10-05T09:13:31.823Z,14.77
2022-10-05T09:18:09.399Z,14.98
2022-10-05T09:22:38.912Z,15.25
2022-10-05T09:27:02.733Z,15.51
2022-10-05T09:31:23.342Z,15.72
2022-10-05T09:35:43.626Z,16.02
2022-10-05T09:45:08.846Z,16.63
2022-10-05T09:48:39.707Z,16.74
2022-10-05T09:53:07.652Z,16.67
2022-10-05T09:56:21.580Z,16.59
2022-10-05T10:00:29.131Z,16.50
2022-10-05T10:05:07.207Z,16.40
2022-10-05T10:08:48.054Z,16.32
2022-10-05T10:12:14.272Z,16.26
2022-10-05T10:16:26.451Z,16.25
2022-10-05T10:20:31.312Z,16.23
2022-10-05T10:24:49.371Z,16.24
2022-10-05T10:28:24.162Z,16.23
2022-10-05T10:33:00.037Z,16.19
2022-10-05T10:37:04.327Z,16.16
2022-10-05T10:41:38.464Z,16.11
2022-10-05T10:46:06.812Z,16.08
2022-10-05T10:50:08.493Z,16.07
2022-10-05T10:54:04.235Z,16.07
2022-10-05T10:58:21.526Z,16.06
2022-10-05T11:02:37.562Z,16.05
2022-10-05T11:07:11.987Z,16.06
2022-10-05T11:11:31.138Z,16.08
2022-10-05T11:15:09.833Z,16.10
2022-10-05T11:20:02.927Z,16.12
2022-10-05T11:24:29.750Z,16.14
2022-10-05T11:29:06.126Z,16.15
2022-10-05T11:33:44.307Z,16.15
2022-10-05T11:38:20.440Z,16.16
2022-10-05T11:42:40.013Z,16.17
2022-10-05T11:46:59.141Z,16.19
2022-10-05T11:50:55.502Z,16.20
2022-10-05T11:55:12.626Z,16.22
2022-10-05T11:59:17.044Z,16.25
2022-10-05T12:03:30.811Z,16.25
2022-10-05T12:08:12.135Z,16.21
2022-10-05T12:12:27.576Z,16.19
2022-10-05T12:16:45.398Z,16.18
2022-10-05T12:21:09.610Z,16.18
2022-10-05T12:25:17.344Z,16.18
2022-10-05T12:29:36.121Z,16.17
2022-10-05T12:34:09.497Z,16.16
2022-10-05T12:38:41.335Z,16.15
2022-10-05T12:43:05.829Z,16.14
2022-10-05T12:46:50.114Z,16.13
2022-10-05T12:50:54.941Z,16.10
2022-10-05T12:55:26.240Z,16.09
2022-10-05T12:59:38.295Z,16.08
2022-10-05T13:03:52.832Z,16.07
2022-10-05T13:08:08.998Z,16.08
2022-10-05T13:12:49.366Z,16.10
2022-10-05T13:17:06.997Z,16.12
2022-10-05T13:21:31.045Z,16.15
2022-10-05T13:26:19.859Z,16.18
2022-10-05T13:30:22.511Z,16.19
2022-10-05T13:42:05.074Z,16.19
2022-10-05T13:46:16.057Z,16.23
2022-10-05T13:50:50.123Z,16.21
2022-10-05T13:55:07.302Z,16.18
2022-10-05T13:59:17.973Z,16.15
2022-10-05T14:03:37.642Z,16.15
2022-10-05T14:07:49.465Z,16.15
2022-10-05T14:11:51.832Z,16.12
2022-10-05T14:16:14.428Z,16.10
2022-10-05T14:19:48.937Z,16.07
2022-10-05T14:23:32.754Z,16.05
2022-10-05T14:26:59.800Z,16.04
2022-10-05T14:30:35.584Z,16.00
2022-10-05T14:34:35.659Z,15.92
2022-10-05T14:38:00.503Z,15.83
2022-10-05T14:41:28.649Z,15.77
2022-10-05T14:45:22.008Z,15.74
2022-10-05T14:48:44.593Z,15.69
2022-10-05T14:52:33.015Z,15.65
2022-10-05T14:56:25.599Z,15.60
2022-10-05T14:59:55.315Z,15.54
2022-10-05T15:03:32.576Z,15.47
2022-10-05T15:07:32.422Z,15.41
2022-10-05T15:10:43.750Z,15.36
2022-10-05T15:14:43.763Z,15.33
2022-10-05T15:17:52.771Z,15.27
2022-10-05T15:21:35.726Z,15.21
2022-10-05T15:25:11.772Z,15.16
2022-10-05T15:28:51.722Z,15.13
2022-10-05T15:32:31.434Z,15.10
2022-10-05T15:36:12.708Z,15.05
2022-10-05T15:39:54.967Z,15.00
2022-10-05T15:43:16.702Z,14.96
2022-10-05T15:46:51.399Z,14.95
2022-10-05T15:50:19.341Z,14.95
2022-10-05T15:54:30.982Z,14.95
2022-10-05T15:57:58.475Z,14.95
2022-10-05T16:01:10.827Z,14.94
2022-10-05T16:05:04.494Z,14.90
2022-10-05T16:08:56.075Z,14.88
2022-10-05T16:12:28.786Z,14.85
2022-10-05T16:15:48.740Z,14.84
2022-10-05T16:19:27.321Z,14.84
2022-10-05T16:26:51.995Z,14.81
2022-10-05T16:30:09.790Z,14.77
2022-10-05T16:33:54.620Z,14.73
2022-10-05T16:37:38.795Z,14.69
2022-10-05T16:41:10.159Z,14.66
2022-10-05T16:44:34.176Z,14.62
2022-10-05T16:48:13.645Z,14.56
2022-10-05T16:52:10.955Z,14.49
2022-10-05T16:55:35.801Z,14.44
2022-10-05T16:59:04.555Z,14.40
2022-10-05T17:02:56.769Z,14.36
2022-10-05T17:06:21.081Z,14.31
2022-10-05T17:10:11.919Z,14.27
2022-10-05T17:13:50.364Z,14.23
2022-10-05T17:17:08.372Z,14.21
2022-10-05T17:20:42.568Z,14.18
2022-10-05T17:24:51.918Z,14.15
2022-10-05T17:28:11.960Z,14.12
2022-10-05T17:31:31.429Z,14.11
2022-10-05T17:35:20.466Z,14.10
2022-10-05T17:38:52.384Z,14.08
2022-10-05T17:42:34.555Z,14.05
2022-10-05T17:46:06.939Z,14.03
2022-10-05T17:49:40.041Z,14.00
2022-10-05T17:53:57.090Z,13.97
2022-10-05T17:56:57.463Z,13.94
2022-10-05T18:01:01.882Z,13.91
2022-10-05T18:04:13.701Z,13.89
2022-10-05T18:08:08.606Z,13.87
2022-10-05T18:11:38.041Z,13.84
2022-10-05T18:15:05.612Z,13.82
2022-10-05T18:18:44.195Z,13.81
2022-10-05T18:22:18.011Z,13.78
2022-10-05T18:25:51.270Z,13.75
2022-10-05T18:29:56.510Z,13.73
2022-10-05T18:33:40.534Z,13.70
2022-10-05T18:36:55.123Z,13.68
2022-10-05T18:40:42.187Z,13.65
2022-10-05T18:44:16.486Z,13.64
2022-10-05T18:47:59.254Z,13.61
2022-10-05T18:51:39.409Z,13.60
2022-10-05T18:55:10.561Z,13.57
2022-10-05T18:58:56.749Z,13.55
2022-10-05T19:02:13.667Z,13.54
2022-10-05T19:05:55.591Z,13.52
2022-10-05T19:19:43.760Z,13.45
2022-10-05T19:23:23.621Z,13.44
2022-10-05T19:27:10.004Z,13.42
2022-10-05T19:30:44.135Z,13.40
2022-10-05T19:34:04.961Z,13.39
2022-10-05T19:37:34.224Z,13.38
2022-10-05T19:40:59.562Z,13.36
2022-10-05T19:44:59.671Z,13.35
2022-10-05T19:48:20.371Z,13.33
2022-10-05T19:51:51.335Z,13.32
2022-10-05T19:55:34.852Z,13.30
2022-10-05T19:59:27.681Z,13.29
2022-10-05T20:02:42.203Z,13.28
2022-10-05T20:06:24.986Z,13.27
2022-10-05T20:10:05.295Z,13.26
2022-10-05T20:13:36.959Z,13.25
2022-10-05T20:17:49.946Z,13.24
2022-10-05T20:20:55.657Z,13.23
2022-10-05T20:24:51.219Z,13.22
2022-10-05T20:28:08.141Z,13.22
2022-10-05T20:31:42.071Z,13.22
2022-10-05T20:35:23.123Z,13.20
2022-10-05T20:39:00.232Z,13.19
2022-10-05T20:42:32.243Z,13.19
2022-10-05T20:46:08.967Z,13.18
2022-10-05T20:49:49.625Z,13.17
2022-10-05T20:57:01.053Z,13.17
2022-10-05T21:00:55.118Z,13.17
2022-10-05T21:04:13.416Z,13.16
2022-10-05T21:07:49.927Z,13.14
2022-10-05T21:11:27.131Z,13.13
2022-10-05T21:15:07.228Z,13.12
2022-10-05T21:18:41.236Z,13.11
2022-10-05T21:22:16.860Z,13.10
2022-10-05T21:25:55.164Z,13.09
2022-10-05T21:29:31.666Z,13.08
2022-10-05T21:33:07.425Z,13.08
2022-10-05T21:47:13.018Z,13.07
2022-10-05T21:50:13.306Z,13.09
2022-10-05T21:54:14.080Z,13.10
2022-10-05T21:57:27.338Z,13.10
2022-10-05T22:01:03.904Z,13.09
2022-10-05T22:04:40.755Z,13.08
2022-10-05T22:08:27.640Z,13.07
2022-10-05T22:11:55.036Z,13.06
2022-10-05T22:15:32.145Z,13.05
2022-10-05T22:19:16.244Z,13.05
2022-10-05T22:22:44.744Z,13.04
2022-10-05T22:26:23.330Z,13.04
2022-10-05T22:29:58.881Z,13.04
2022-10-05T22:33:43.481Z,13.03
2022-10-05T22:37:13.342Z,13.03
2022-10-05T22:40:48.917Z,13.03
2022-10-05T22:44:25.997Z,13.02
2022-10-05T22:48:02.261Z,13.03
2022-10-05T22:51:39.336Z,13.02
2022-10-05T22:55:16.194Z,13.03
2022-10-05T22:58:52.893Z,13.03
2022-10-05T23:02:35.780Z,13.05
2022-10-05T23:06:09.802Z,13.06
2022-10-05T23:09:43.724Z,13.07
2022-10-05T23:13:21.221Z,13.09
2022-10-05T23:17:00.064Z,13.12
2022-10-05T23:20:39.738Z,13.16
2022-10-05T23:24:10.524Z,13.22
2022-10-05T23:27:49.779Z,13.28
2022-10-05T23:31:30.365Z,13.32
2022-10-05T23:35:04.597Z,13.36
2022-10-05T23:38:48.805Z,13.41
2022-10-05T23:42:24.282Z,13.45
2022-10-05T23:45:51.546Z,13.49
2022-10-05T23:49:28.450Z,13.52
2022-10-05T23:53:05.202Z,13.55
2022-10-05T23:56:42.822Z,13.58
